Time;durP1;ratioP1;P1;durP2;ratioP2;P2;SDS_P1;SDS_P2;PMS_P1;PMS_P2;Temp;Humidity;BMP_temperature;BMP_pressure;BME280_temperature;BME280_humidity;BME280_pressure;Samples;Min_cycle;Max_cycle;Signal;HPM_P1;HPM_P2
2022/11/01 00:01:31;;;;;;;54.80;29.08;;;;;;;11.95;100.00;101363.38;5051937;28;20190;-47
2022/11/01 00:03:57;;;;;;;59.00;30.50;;;;;;;11.98;100.00;101365.06;5051216;28;20309;-47
2022/11/01 00:06:23;;;;;;;60.50;30.80;;;;;;;12.00;100.00;101362.34;5052504;28;20212;-44
2022/11/01 00:08:48;;;;;;;63.97;30.08;;;;;;;12.03;100.00;101356.88;5052644;28;20297;-46
2022/11/01 00:11:15;;;;;;;58.22;31.33;;;;;;;12.04;100.00;101342.50;5052724;28;20211;-44
2022/11/01 00:13:44;;;;;;;64.88;31.88;;;;;;;12.03;100.00;101349.69;5026326;28;20211;-44
2022/11/01 00:16:10;;;;;;;69.00;32.28;;;;;;;12.07;100.00;101337.91;5052744;28;20634;-43
2022/11/01 00:18:35;;;;;;;70.18;32.58;;;;;;;12.07;100.00;101345.06;5052663;28;20270;-46
2022/11/01 00:21:01;;;;;;;64.18;31.80;;;;;;;12.08;100.00;101328.91;5051615;28;20274;-44
2022/11/01 00:23:26;;;;;;;68.10;32.00;;;;;;;12.09;100.00;101324.41;5052129;28;20261;-42
2022/11/01 00:25:52;;;;;;;71.75;33.50;;;;;;;12.11;100.00;101328.81;5044855;28;20222;-43
2022/11/01 00:28:17;;;;;;;63.55;32.90;;;;;;;12.10;100.00;101324.34;5052411;28;20195;-42
2022/11/01 00:30:42;;;;;;;66.90;32.25;;;;;;;12.13;100.00;101324.25;5052301;28;20261;-42
2022/11/01 00:33:08;;;;;;;65.35;34.10;;;;;;;12.16;100.00;101313.38;5048231;28;20179;-40
2022/11/01 00:35:37;;;;;;;71.05;33.50;;;;;;;12.14;100.00;101309.88;5033285;28;20222;-41
2022/11/01 00:38:03;;;;;;;74.03;34.70;;;;;;;12.11;100.00;101299.25;5051773;28;20269;-41
2022/11/01 00:40:29;;;;;;;76.40;35.88;;;;;;;12.15;100.00;101297.31;5048638;28;20298;-42
2022/11/01 00:42:54;;;;;;;71.53;34.78;;;;;;;12.13;100.00;101305.47;5051875;28;20710;-41
2022/11/01 00:45:20;;;;;;;69.82;33.53;;;;;;;12.14;100.00;101296.44;5040929;28;20211;-42
2022/11/01 00:47:48;;;;;;;72.22;35.17;;;;;;;12.13;100.00;101288.44;5052112;28;20195;-42
2022/11/01 00:50:14;;;;;;;77.60;34.05;;;;;;;12.13;100.00;101283.97;5051776;28;20628;-42
2022/11/01 00:52:39;;;;;;;74.57;36.50;;;;;;;12.15;100.00;101286.56;5033719;28;20266;-42
2022/11/01 00:55:05;;;;;;;69.60;36.28;;;;;;;12.22;100.00;101292.59;5051570;28;20637;-42
2022/11/01 00:57:31;;;;;;;69.05;34.83;;;;;;;12.18;100.00;101277.53;5050340;28;20287;-43
2022/11/01 00:59:56;;;;;;;71.80;36.22;;;;;;;12.21;100.00;101272.91;5047526;28;20188;-42
2022/11/01 01:02:22;;;;;;;68.22;36.15;;;;;;;12.20;100.00;101263.13;5051752;28;20183;-42
2022/11/01 01:04:49;;;;;;;67.05;35.92;;;;;;;12.22;100.00;101263.91;5051618;28;20578;-41
2022/11/01 01:07:15;;;;;;;68.30;34.40;;;;;;;12.28;100.00;101274.44;5051902;28;20188;-41
2022/11/01 01:09:41;;;;;;;60.60;35.78;;;;;;;12.26;100.00;101267.38;5051322;28;20662;-42
2022/11/01 01:12:08;;;;;;;64.47;34.80;;;;;;;12.24;100.00;101275.47;5033281;28;20223;-41
2022/11/01 01:14:34;;;;;;;68.72;36.90;;;;;;;12.24;100.00;101263.84;5050944;28;20203;-42
2022/11/01 01:16:59;;;;;;;65.05;35.60;;;;;;;12.25;100.00;101261.13;5051456;28;20449;-41
2022/11/01 01:19:25;;;;;;;61.15;34.80;;;;;;;12.26;100.00;101262.00;5033842;28;20278;-42
2022/11/01 01:21:50;;;;;;;60.80;33.17;;;;;;;12.27;100.00;101261.94;5051200;28;20218;-41
2022/11/01 01:24:15;;;;;;;62.85;34.78;;;;;;;12.27;100.00;101259.25;5050640;28;20785;-42
2022/11/01 01:26:41;;;;;;;60.05;34.63;;;;;;;12.26;100.00;101265.56;5050904;28;20467;-42
2022/11/01 01:29:06;;;;;;;65.25;35.78;;;;;;;12.28;100.00;101262.81;5049817;28;20199;-41
2022/11/01 01:31:32;;;;;;;60.25;35.47;;;;;;;12.27;100.00;101258.38;5051161;28;20237;-41
2022/11/01 01:33:57;;;;;;;60.72;35.22;;;;;;;12.27;100.00;101248.50;5032590;28;20294;-43
2022/11/01 01:36:23;;;;;;;63.65;35.70;;;;;;;12.28;100.00;101241.31;5050557;28;20269;-45
2022/11/01 01:38:53;;;;;;;62.05;35.42;;;;;;;12.28;100.00;101247.56;5032474;28;20647;-45
2022/11/01 01:44:40;;;;;;;62.20;35.92;;;;;;;12.29;100.00;101224.28;4953585;23;20231;-41
2022/11/01 01:47:09;;;;;;;54.53;35.75;;;;;;;12.29;100.00;101221.59;4930327;29;20218;-44
2022/11/01 01:49:34;;;;;;;57.38;36.65;;;;;;;12.29;100.00;101221.59;4931035;29;20298;-41
2022/11/01 01:52:00;;;;;;;54.58;35.35;;;;;;;12.28;100.00;101217.13;4930759;29;20627;-44
2022/11/01 01:54:27;;;;;;;56.03;36.95;;;;;;;12.30;100.00;101209.91;4929681;29;20204;-40
2022/11/01 01:56:52;;;;;;;51.33;35.42;;;;;;;12.30;100.00;101197.31;4925979;29;20267;-47
2022/11/01 01:59:18;;;;;;;55.75;36.38;;;;;;;12.29;100.00;101203.66;4921536;28;20261;-46
2022/11/01 02:01:44;;;;;;;57.90;36.50;;;;;;;12.27;100.00;101180.47;4917358;29;20195;-45
2022/11/01 02:04:21;;;;;;;58.70;36.10;;;;;;;12.24;100.00;101181.44;4913634;28;20207;-44
2022/11/01 02:06:47;;;;;;;50.10;35.55;;;;;;;12.27;100.00;101183.16;4922304;28;20187;-45
2022/11/01 02:09:15;;;;;;;51.40;36.50;;;;;;;12.28;100.00;101184.91;4918087;29;20204;-45
2022/11/01 02:11:40;;;;;;;54.88;36.20;;;;;;;12.29;100.00;101192.91;4921405;29;20192;-45
2022/11/01 02:14:06;;;;;;;52.47;36.65;;;;;;;12.28;100.00;101185.75;4918135;28;20598;-44
2022/11/01 02:16:39;;;;;;;58.45;36.67;;;;;;;12.27;100.00;101189.41;4914251;29;20361;-45
2022/11/01 02:19:11;;;;;;;55.10;36.25;;;;;;;12.26;100.00;101193.00;4918477;29;20578;-46
2022/11/01 02:21:50;;;;;;;61.55;36.85;;;;;;;12.28;100.00;101184.91;4918608;29;20358;-44
2022/11/01 02:24:45;;;;;;;60.10;38.22;;;;;;;12.26;100.00;101182.25;4920103;29;20214;-45
2022/11/01 02:27:13;;;;;;;60.10;38.35;;;;;;;12.27;100.00;101156.31;4916999;29;20190;-45
2022/11/01 02:29:57;;;;;;;60.28;38.40;;;;;;;12.27;100.00;101161.66;4915253;29;20200;-45
2022/11/01 02:32:31;;;;;;;56.70;36.10;;;;;;;12.27;100.00;101157.16;4904881;29;20202;-47
2022/11/01 02:35:07;;;;;;;61.05;38.17;;;;;;;12.28;100.00;101150.84;4922039;28;20203;-47
2022/11/01 02:37:58;;;;;;;56.92;37.80;;;;;;;12.29;100.00;101149.91;4918069;29;20699;-46
2022/11/01 02:40:39;;;;;;;59.00;38.50;;;;;;;12.28;100.00;101142.78;4917923;29;20200;-47
2022/11/01 02:43:36;;;;;;;60.28;38.40;;;;;;;12.30;100.00;101140.91;4915790;29;20221;-46
2022/11/01 02:46:59;;;;;;;58.75;38.80;;;;;;;12.32;100.00;101135.47;4904318;29;20240;-46
2022/11/01 02:48:52;;;;;;;57.40;38.72;;;;;;;12.34;100.00;101147.91;4922315;29;20218;-48
2022/11/01 02:51:20;;;;;;;62.20;40.08;;;;;;;12.35;100.00;101119.22;4923854;29;20187;-45
2022/11/01 02:53:45;;;;;;;63.22;39.88;;;;;;;12.33;100.00;101111.25;4914953;29;20735;-47
2022/11/01 02:56:11;;;;;;;61.72;39.58;;;;;;;12.31;100.00;101106.84;4916820;29;20184;-47
2022/11/01 02:58:36;;;;;;;62.78;41.78;;;;;;;12.29;100.00;101108.75;4917923;28;20739;-44
2022/11/01 03:01:13;;;;;;;64.85;41.85;;;;;;;12.30;100.00;101092.56;4918311;28;20188;-44
2022/11/01 03:03:44;;;;;;;67.45;41.00;;;;;;;12.29;100.00;101085.44;4913770;29;20203;-44
2022/11/01 03:06:40;;;;;;;66.63;40.72;;;;;;;12.30;100.00;101084.50;4919440;29;20842;-44
2022/11/01 03:09:13;;;;;;;63.28;40.35;;;;;;;12.29;100.00;101080.06;4924270;28;20188;-43
2022/11/01 03:11:58;;;;;;;71.30;41.50;;;;;;;12.25;100.00;101075.75;4918224;29;20274;-44
2022/11/01 03:14:45;;;;;;;69.35;40.97;;;;;;;12.29;100.00;101079.19;4914791;29;20307;-45
2022/11/01 03:17:22;;;;;;;67.32;42.38;;;;;;;12.27;100.00;101065.81;4917894;29;20617;-45
2022/11/01 03:20:14;;;;;;;70.40;43.35;;;;;;;12.30;100.00;101056.75;4918381;29;20202;-44
2022/11/01 03:22:45;;;;;;;68.10;43.20;;;;;;;12.29;100.00;101057.72;4913796;29;20691;-45
2022/11/01 03:25:47;;;;;;;66.47;42.03;;;;;;;12.27;100.00;101059.59;4919285;28;20306;-44
2022/11/01 03:28:21;;;;;;;67.75;42.67;;;;;;;12.27;100.00;101049.69;4916467;29;20404;-45
2022/11/01 03:31:05;;;;;;;64.05;42.45;;;;;;;12.29;100.00;101065.78;4925501;29;20688;-45
2022/11/01 03:33:33;;;;;;;74.57;43.53;;;;;;;12.30;100.00;101054.06;4917986;29;20816;-45
2022/11/01 03:36:03;;;;;;;69.20;41.67;;;;;;;12.31;100.00;101047.75;4920918;29;20198;-46
2022/11/01 03:38:33;;;;;;;69.85;41.33;;;;;;;12.31;100.00;101045.06;4920492;28;20192;-45
2022/11/01 03:41:02;;;;;;;67.05;42.22;;;;;;;12.28;100.00;101029.94;4928401;29;20228;-44
2022/11/01 03:43:30;;;;;;;62.90;40.20;;;;;;;12.28;100.00;101029.94;4922224;28;20216;-46
2022/11/01 03:45:56;;;;;;;67.88;41.38;;;;;;;12.28;100.00;101027.25;4917432;29;20217;-45
2022/11/01 03:48:22;;;;;;;63.72;40.58;;;;;;;12.30;100.00;101035.25;4920687;29;20191;-47
2022/11/01 03:50:49;;;;;;;68.70;41.45;;;;;;;12.31;100.00;101037.91;4924005;28;20199;-45
2022/11/01 03:53:15;;;;;;;66.43;40.65;;;;;;;12.33;100.00;101030.66;4921662;29;20322;-46
2022/11/01 03:55:42;;;;;;;65.88;39.92;;;;;;;12.31;100.00;101021.78;4918859;29;20183;-47
2022/11/01 03:58:07;;;;;;;65.10;41.15;;;;;;;12.32;100.00;101017.25;4916269;29;20199;-45
2022/11/01 04:00:41;;;;;;;64.53;41.13;;;;;;;12.31;100.00;101021.78;4920677;29;20195;-46
2022/11/01 04:03:08;;;;;;;61.67;39.50;;;;;;;12.33;100.00;101011.84;4921338;29;20668;-47
2022/11/01 04:05:35;;;;;;;68.50;41.30;;;;;;;12.31;100.00;101000.28;4918916;29;20298;-48
2022/11/01 04:08:00;;;;;;;63.72;38.72;;;;;;;12.38;100.00;101000.03;4919086;29;20613;-46
2022/11/01 04:10:28;;;;;;;64.28;39.55;;;;;;;12.39;100.00;100988.31;4918618;29;20275;-45
2022/11/01 04:12:54;;;;;;;65.13;40.00;;;;;;;12.38;100.00;100992.81;4917644;29;20218;-45
2022/11/01 04:21:09;;;;;;;64.38;39.25;;;;;;;12.33;100.00;100963.47;4917228;28;20293;-45
2022/11/01 04:23:35;;;;;;;67.72;38.65;;;;;;;12.39;100.00;100978.44;4933995;29;20318;-46
2022/11/01 04:26:02;;;;;;;64.05;40.55;;;;;;;12.33;100.00;100974.22;4921766;29;20251;-45
2022/11/01 04:28:27;;;;;;;61.08;39.30;;;;;;;12.35;100.00;100975.03;4923332;29;20290;-46
2022/11/01 04:30:53;;;;;;;65.20;39.20;;;;;;;12.34;100.00;100964.34;4918615;29;20623;-45
2022/11/01 04:33:19;;;;;;;69.25;38.33;;;;;;;12.39;100.00;100966.81;4925396;29;20195;-45
2022/11/01 04:35:44;;;;;;;69.45;40.60;;;;;;;12.35;100.00;100964.28;4917848;29;20250;-44
2022/11/01 04:38:11;;;;;;;64.47;38.95;;;;;;;12.35;100.00;100941.88;4919825;29;20175;-47
2022/11/01 04:40:37;;;;;;;59.72;38.28;;;;;;;12.35;100.00;100956.22;4919045;29;20664;-46
2022/11/01 04:43:02;;;;;;;59.33;38.80;;;;;;;12.34;100.00;100945.53;4922810;29;20206;-46
2022/11/01 04:45:28;;;;;;;69.28;38.97;;;;;;;12.36;100.00;100962.47;4918306;29;20206;-46
2022/11/01 04:48:12;;;;;;;61.95;37.90;;;;;;;12.33;100.00;100951.81;4918986;29;20278;-45
2022/11/01 04:50:39;;;;;;;67.88;38.53;;;;;;;12.35;100.00;100948.16;4918428;29;20196;-45
2022/11/01 04:53:08;;;;;;;63.60;37.95;;;;;;;12.34;100.00;100959.84;4920087;29;20717;-46
2022/11/01 04:55:34;;;;;;;62.28;37.55;;;;;;;12.35;100.00;100958.00;4922316;28;20274;-44
2022/11/01 04:57:59;;;;;;;63.72;38.22;;;;;;;12.36;100.00;100949.03;4919122;29;20283;-45
2022/11/01 05:00:25;;;;;;;67.03;39.58;;;;;;;12.39;100.00;100954.25;4919807;29;20187;-45
2022/11/01 05:02:58;;;;;;;60.90;38.85;;;;;;;12.41;100.00;100948.81;4921772;29;20652;-47
2022/11/01 05:05:23;;;;;;;60.88;37.38;;;;;;;12.39;100.00;100942.63;4922774;29;20302;-47
2022/11/01 05:07:49;;;;;;;61.78;38.25;;;;;;;12.38;100.00;100946.28;4923018;29;20315;-46
2022/11/01 05:10:14;;;;;;;62.65;38.58;;;;;;;12.38;100.00;100948.97;4917566;29;20199;-46
2022/11/01 05:12:40;;;;;;;57.33;37.63;;;;;;;12.38;100.00;100955.22;4919717;29;20184;-46
2022/11/01 05:15:06;;;;;;;59.63;38.83;;;;;;;12.34;100.00;100951.78;4918798;29;20234;-45
2022/11/01 05:17:31;;;;;;;59.67;37.80;;;;;;;12.37;100.00;100945.38;4921201;29;20251;-46
2022/11/01 05:19:57;;;;;;;65.50;38.60;;;;;;;12.38;100.00;100940.91;4920226;29;20184;-44
2022/11/01 05:22:22;;;;;;;62.83;37.60;;;;;;;12.35;100.00;100929.34;4916577;29;20924;-45
2022/11/01 05:24:48;;;;;;;61.47;36.88;;;;;;;12.39;100.00;100946.19;4913635;29;20220;-45
2022/11/01 05:27:13;;;;;;;59.65;37.97;;;;;;;12.39;100.00;100953.38;4917144;29;20709;-44
2022/11/01 05:29:39;;;;;;;59.75;37.22;;;;;;;12.40;100.00;100971.25;4920845;29;20235;-44
2022/11/01 05:32:04;;;;;;;56.53;37.30;;;;;;;12.44;100.00;100973.75;4919170;29;20629;-46
2022/11/01 05:34:29;;;;;;;62.30;40.13;;;;;;;12.42;100.00;100964.00;4917387;29;20223;-45
2022/11/01 05:36:55;;;;;;;63.05;38.28;;;;;;;12.42;100.00;100958.63;4916815;29;20194;-45
2022/11/01 05:39:20;;;;;;;67.38;38.72;;;;;;;12.40;100.00;100947.06;4919587;29;20184;-47
2022/11/01 05:41:46;;;;;;;57.95;38.72;;;;;;;12.44;100.00;100937.94;4918506;29;20250;-45
2022/11/01 05:44:11;;;;;;;64.78;39.10;;;;;;;12.41;100.00;100932.69;4918433;28;20315;-44
2022/11/01 05:46:37;;;;;;;63.22;38.20;;;;;;;12.40;100.00;100939.00;4919738;28;20314;-46
2022/11/01 05:49:02;;;;;;;64.25;37.65;;;;;;;12.40;100.00;100936.31;4915860;29;20218;-45
2022/11/01 05:51:27;;;;;;;62.72;39.15;;;;;;;12.41;100.00;100938.94;4917395;29;20194;-45
2022/11/01 05:53:53;;;;;;;58.25;38.10;;;;;;;12.36;100.00;100924.84;4920855;28;20255;-46
2022/11/01 05:56:18;;;;;;;60.97;38.58;;;;;;;12.39;100.00;100942.63;4923157;28;20279;-46
2022/11/01 05:58:45;;;;;;;59.72;38.33;;;;;;;12.35;100.00;100942.78;4923177;29;20282;-46
2022/11/01 06:01:11;;;;;;;60.90;37.00;;;;;;;12.32;100.00;100947.41;4921782;29;20211;-44
2022/11/01 06:03:36;;;;;;;55.78;38.08;;;;;;;12.32;100.00;100945.59;4913976;29;20227;-44
2022/11/01 06:06:03;;;;;;;61.45;38.78;;;;;;;12.30;100.00;100936.72;4919198;28;20314;-44
2022/11/01 06:08:29;;;;;;;58.70;37.90;;;;;;;12.31;100.00;100942.97;4916689;28;20207;-44
2022/11/01 06:11:03;;;;;;;61.70;38.20;;;;;;;12.32;100.00;100934.84;4923027;29;20570;-45
2022/11/01 06:13:30;;;;;;;61.55;38.80;;;;;;;12.33;100.00;100935.72;4917533;29;20742;-44
2022/11/01 06:16:03;;;;;;;60.70;39.92;;;;;;;12.32;100.00;100932.16;4914791;29;20622;-46
2022/11/01 06:18:30;;;;;;;59.75;38.85;;;;;;;12.31;100.00;100933.13;4918530;29;20559;-45
2022/11/01 06:20:56;;;;;;;59.17;38.60;;;;;;;12.29;100.00;100935.00;4919246;28;20188;-45
2022/11/01 06:23:22;;;;;;;55.58;38.30;;;;;;;12.33;100.00;100925.88;4920138;29;20619;-45
2022/11/01 06:25:47;;;;;;;61.85;37.63;;;;;;;12.35;100.00;100932.03;4925377;29;20208;-45
2022/11/01 06:28:13;;;;;;;59.50;38.30;;;;;;;12.35;100.00;100931.16;4917076;29;20241;-45
2022/11/01 06:30:39;;;;;;;60.08;38.90;;;;;;;12.34;100.00;100927.59;4916001;29;20269;-46
2022/11/01 06:33:08;;;;;;;63.03;39.88;;;;;;;12.35;100.00;100932.03;4919809;29;20199;-46
2022/11/01 06:35:33;;;;;;;53.45;37.10;;;;;;;12.34;100.00;100932.97;4914928;29;20712;-47
2022/11/01 06:38:05;;;;;;;57.90;39.38;;;;;;;12.34;100.00;100935.66;4919426;29;20274;-48
2022/11/01 06:40:34;;;;;;;56.75;37.75;;;;;;;12.37;100.00;100934.63;4916460;29;20247;-48
2022/11/01 06:43:01;;;;;;;57.03;36.80;;;;;;;12.38;100.00;100938.22;4916026;29;20207;-47
2022/11/01 06:45:27;;;;;;;54.42;36.13;;;;;;;12.47;100.00;100937.81;4918263;28;20246;-47
2022/11/01 06:47:53;;;;;;;56.70;36.00;;;;;;;12.41;100.00;100933.56;4921195;29;20203;-46
2022/11/01 06:50:19;;;;;;;56.92;38.10;;;;;;;12.37;100.00;100929.25;4913384;29;20202;-47
2022/11/01 06:52:44;;;;;;;55.45;37.30;;;;;;;12.39;100.00;100934.59;4913766;28;20815;-49
2022/11/01 06:55:10;;;;;;;56.35;37.42;;;;;;;12.39;100.00;100942.63;4915535;29;20225;-48
2022/11/01 06:57:35;;;;;;;53.05;37.63;;;;;;;12.42;100.00;100926.38;4918571;29;20199;-47
2022/11/01 07:00:01;;;;;;;53.35;35.92;;;;;;;12.43;100.00;100936.19;4917095;28;20188;-47
2022/11/01 07:02:26;;;;;;;53.83;35.75;;;;;;;12.45;100.00;100935.19;4915568;29;20333;-48
2022/11/01 07:04:52;;;;;;;58.55;36.80;;;;;;;12.49;100.00;100944.00;4916354;29;21098;-45
2022/11/01 07:07:18;;;;;;;51.05;35.97;;;;;;;12.47;100.00;100954.81;4917350;29;20206;-45
2022/11/01 07:09:43;;;;;;;54.92;36.85;;;;;;;12.51;100.00;100942.97;4916752;29;20668;-47
2022/11/01 07:12:09;;;;;;;57.00;36.60;;;;;;;12.52;100.00;100954.59;4919673;29;20176;-46
2022/11/01 07:14:34;;;;;;;62.08;36.30;;;;;;;12.51;100.00;100944.78;4916713;29;20718;-47
2022/11/01 07:16:59;;;;;;;51.60;35.10;;;;;;;12.49;100.00;100955.59;4916088;29;20296;-47
2022/11/01 07:19:25;;;;;;;55.15;35.80;;;;;;;12.49;100.00;100958.28;4917864;29;20198;-46
2022/11/01 07:21:50;;;;;;;49.13;34.28;;;;;;;12.52;100.00;100949.22;4919670;29;20282;-45
2022/11/01 07:24:16;;;;;;;57.72;36.65;;;;;;;12.52;100.00;100955.47;4921220;29;20213;-47
2022/11/01 07:26:41;;;;;;;50.83;35.97;;;;;;;12.54;100.00;100952.72;4917768;29;20211;-48
2022/11/01 07:29:07;;;;;;;49.50;34.38;;;;;;;12.57;100.00;100950.78;4913236;29;20218;-47
2022/11/01 07:31:32;;;;;;;56.78;35.25;;;;;;;12.59;100.00;100948.00;4918051;29;20201;-48
2022/11/01 07:33:58;;;;;;;52.08;35.10;;;;;;;12.61;100.00;100945.25;4914673;29;20215;-47
2022/11/01 07:36:24;;;;;;;53.38;33.85;;;;;;;12.61;100.00;100945.25;4915991;29;20184;-47
2022/11/01 07:38:49;;;;;;;46.25;32.63;;;;;;;12.63;100.00;100941.53;4922179;29;20371;-45
2022/11/01 07:41:14;;;;;;;49.78;33.90;;;;;;;12.65;100.00;100938.78;4916670;29;20203;-47
2022/11/01 07:43:40;;;;;;;47.75;33.30;;;;;;;12.68;100.00;100949.41;4913351;28;20383;-47
2022/11/01 07:46:06;;;;;;;51.35;32.47;;;;;;;12.68;100.00;100939.53;4917414;29;20238;-47
2022/11/01 07:48:32;;;;;;;49.03;33.00;;;;;;;12.71;100.00;100962.72;4918900;29;20211;-48
2022/11/01 07:50:58;;;;;;;43.72;32.70;;;;;;;12.73;100.00;100964.38;4919912;29;20616;-47
2022/11/01 07:53:24;;;;;;;47.72;31.60;;;;;;;12.76;100.00;100955.31;4915953;29;20204;-48
2022/11/01 07:55:50;;;;;;;44.80;29.98;;;;;;;12.77;100.00;100962.44;4914897;28;20189;-47
2022/11/01 07:58:15;;;;;;;45.70;31.45;;;;;;;12.84;100.00;100963.91;4918881;28;20702;-49
2022/11/01 08:00:42;;;;;;;46.38;31.17;;;;;;;12.84;100.00;100957.66;4920483;28;20275;-46
2022/11/01 08:03:11;;;;;;;42.33;30.00;;;;;;;12.86;100.00;100964.72;4914659;29;20191;-48
2022/11/01 08:05:37;;;;;;;43.55;30.65;;;;;;;12.86;100.00;100963.84;4917300;29;20233;-47
2022/11/01 08:08:04;;;;;;;43.92;29.38;;;;;;;12.88;100.00;100959.25;4915082;28;20659;-47
2022/11/01 08:10:31;;;;;;;43.35;30.27;;;;;;;12.89;100.00;100958.31;4913598;29;20355;-48
2022/11/01 08:13:02;;;;;;;37.72;27.77;;;;;;;12.91;100.00;100965.38;4918592;29;20249;-47
2022/11/01 08:15:28;;;;;;;44.70;29.13;;;;;;;12.95;100.00;100952.66;4921139;29;20712;-46
2022/11/01 08:17:56;;;;;;;40.35;29.55;;;;;;;12.95;100.00;100966.09;4921200;29;20227;-48
2022/11/01 08:20:22;;;;;;;42.72;30.15;;;;;;;12.99;100.00;100965.88;4920473;29;20192;-48
2022/11/01 08:22:47;;;;;;;38.38;28.55;;;;;;;12.99;100.00;100965.03;4918930;29;20238;-48
2022/11/01 08:25:16;;;;;;;38.80;28.90;;;;;;;12.96;100.00;100966.00;4917848;28;20211;-47
2022/11/01 08:27:41;;;;;;;38.13;28.52;;;;;;;13.04;100.00;100959.44;4923013;28;20558;-47
2022/11/01 08:30:08;;;;;;;43.35;29.48;;;;;;;13.02;100.00;100961.31;4915876;29;20319;-46
2022/11/01 08:32:34;;;;;;;41.63;29.02;;;;;;;13.04;100.00;100956.75;4918677;29;20719;-49
2022/11/01 08:35:00;;;;;;;42.95;28.83;;;;;;;13.06;100.00;100957.53;4926232;29;20199;-46
2022/11/01 08:37:25;;;;;;;39.08;27.73;;;;;;;13.11;100.00;100966.25;4919647;29;20196;-47
2022/11/01 08:39:50;;;;;;;40.83;27.77;;;;;;;13.20;100.00;100965.81;4921810;29;20839;-48
2022/11/01 08:42:16;;;;;;;38.30;26.70;;;;;;;13.33;100.00;100966.16;4922020;29;20195;-47
2022/11/01 08:44:41;;;;;;;42.10;27.70;;;;;;;13.40;100.00;100972.97;4920102;28;20673;-47
2022/11/01 08:47:08;;;;;;;41.08;27.05;;;;;;;13.46;100.00;100958.38;4919975;28;20207;-47
2022/11/01 08:49:33;;;;;;;38.25;26.50;;;;;;;13.49;100.00;100963.59;4920898;29;20196;-46
2022/11/01 08:51:59;;;;;;;36.90;25.75;;;;;;;13.55;100.00;100966.84;4925772;29;20688;-47
2022/11/01 08:54:24;;;;;;;35.22;24.80;;;;;;;13.66;100.00;100957.41;4917095;29;20283;-47
2022/11/01 08:56:50;;;;;;;36.13;24.33;;;;;;;13.71;100.00;100964.31;4917659;29;20191;-47
2022/11/01 08:59:15;;;;;;;32.58;23.63;;;;;;;13.74;100.00;100957.91;4920724;29;20358;-47
2022/11/01 09:01:41;;;;;;;32.20;23.60;;;;;;;13.77;100.00;100957.72;4920281;29;20247;-47
2022/11/01 09:04:06;;;;;;;31.50;23.88;;;;;;;13.81;100.00;100962.03;4921559;29;20253;-46
2022/11/01 09:06:32;;;;;;;31.52;22.30;;;;;;;13.85;100.00;100969.00;4919100;28;20211;-48
2022/11/01 09:08:58;;;;;;;32.03;22.38;;;;;;;13.89;100.00;100964.34;4919323;29;20239;-46
2022/11/01 09:11:24;;;;;;;32.03;21.73;;;;;;;13.91;100.00;100967.84;4926198;29;20196;-49
2022/11/01 09:13:51;;;;;;;27.80;21.88;;;;;;;13.95;100.00;100970.31;4918615;28;20211;-48
2022/11/01 09:16:17;;;;;;;26.33;20.80;;;;;;;13.95;100.00;100981.09;4922438;29;20218;-47
2022/11/01 09:18:43;;;;;;;24.23;20.10;;;;;;;13.95;100.00;100969.41;4921419;29;20290;-48
2022/11/01 09:21:08;;;;;;;27.85;20.30;;;;;;;14.01;100.00;100966.41;4918553;29;20581;-49
2022/11/01 09:23:35;;;;;;;27.15;19.00;;;;;;;14.01;100.00;100970.00;4913909;29;20247;-49
2022/11/01 09:26:07;;;;;;;28.17;18.83;;;;;;;14.06;100.00;100966.19;4917697;29;20706;-48
2022/11/01 09:28:33;;;;;;;25.00;18.33;;;;;;;14.14;100.00;100959.44;4922329;29;20224;-46
2022/11/01 09:31:04;;;;;;;27.58;17.83;;;;;;;14.20;100.00;100967.22;4918268;28;20196;-49
2022/11/01 09:33:30;;;;;;;23.92;16.10;;;;;;;14.27;100.00;100967.78;4917759;29;20242;-47
2022/11/01 09:35:56;;;;;;;24.65;16.50;;;;;;;14.36;100.00;100970.00;4918191;29;20192;-51
2022/11/01 09:38:22;;;;;;;22.60;15.98;;;;;;;14.42;100.00;100967.00;4918161;29;20738;-48
2022/11/01 09:41:11;;;;;;;21.30;15.68;;;;;;;14.52;100.00;100985.38;4920255;29;20262;-48
2022/11/01 09:43:39;;;;;;;19.08;15.18;;;;;;;14.75;100.00;100974.28;4922556;29;20293;-49
2022/11/01 09:46:06;;;;;;;18.83;14.60;;;;;;;15.00;100.00;100973.84;4918603;29;20290;-48
2022/11/01 09:48:35;;;;;;;19.50;14.05;;;;;;;15.06;100.00;100972.63;4914001;29;20203;-50
2022/11/01 09:51:06;;;;;;;19.30;14.25;;;;;;;15.40;100.00;100986.97;4917605;29;20282;-46
2022/11/01 09:53:31;;;;;;;19.13;13.80;;;;;;;15.57;100.00;100976.09;4921768;29;20220;-48
2022/11/01 09:56:15;;;;;;;22.70;13.48;;;;;;;15.52;100.00;100980.00;4915909;29;20563;-48
2022/11/01 09:59:15;;;;;;;17.63;12.57;;;;;;;15.69;100.00;100982.63;4915216;29;20184;-48
2022/11/01 10:02:00;;;;;;;18.25;12.00;;;;;;;15.61;100.00;100983.06;4917270;29;20187;-46
2022/11/01 10:04:32;;;;;;;16.67;11.68;;;;;;;15.63;100.00;100983.84;4918522;29;20287;-49
2022/11/01 10:07:06;;;;;;;18.33;11.13;;;;;;;15.74;100.00;100988.69;4919072;29;20582;-47
2022/11/01 10:09:45;;;;;;;21.98;10.85;;;;;;;15.68;100.00;100993.50;4919424;29;20597;-48
2022/11/01 10:12:13;;;;;;;14.27;10.43;;;;;;;15.68;100.00;100985.38;4920101;29;20573;-47
2022/11/01 10:15:09;;;;;;;13.10;10.15;;;;;;;15.55;100.00;100991.50;4915127;29;20212;-47
2022/11/01 10:17:48;;;;;;;14.48;9.30;;;;;;;15.47;100.00;100980.25;4919574;28;20183;-46
2022/11/01 10:20:14;;;;;;;14.82;7.97;;;;;;;15.49;100.00;100996.38;4908680;29;20565;-48
2022/11/01 10:22:43;;;;;;;12.02;8.05;;;;;;;15.57;100.00;101000.41;4919458;29;20203;-46
2022/11/01 10:25:29;;;;;;;12.93;7.07;;;;;;;15.49;100.00;100988.28;4917445;28;20381;-46
2022/11/01 10:28:09;;;;;;;11.05;6.85;;;;;;;15.49;100.00;100986.44;4918847;28;20231;-46
2022/11/01 10:30:47;;;;;;;11.20;7.00;;;;;;;15.44;100.00;100993.94;4920697;29;20743;-48
2022/11/01 10:33:38;;;;;;;10.57;6.32;;;;;;;15.48;99.96;101003.63;4921205;29;20260;-46
2022/11/01 10:36:36;;;;;;;8.85;5.35;;;;;;;15.44;99.18;100994.81;4921577;28;20254;-48
2022/11/01 10:39:32;;;;;;;10.45;5.65;;;;;;;15.39;98.48;101010.41;4927188;28;20212;-47
2022/11/01 10:42:07;;;;;;;8.05;4.85;;;;;;;15.29;97.43;101005.59;4914099;29;20729;-46
2022/11/01 10:44:38;;;;;;;10.43;4.35;;;;;;;15.32;96.66;101006.28;4921064;28;20580;-48
2022/11/01 10:47:09;;;;;;;10.05;3.90;;;;;;;15.25;95.58;101005.75;4920145;29;20574;-48
2022/11/01 10:49:38;;;;;;;10.20;3.83;;;;;;;15.27;94.01;101013.78;4915337;29;20202;-48
2022/11/01 10:52:10;;;;;;;10.73;4.18;;;;;;;15.22;93.72;101013.16;4918260;29;20274;-46
2022/11/01 10:54:40;;;;;;;8.82;3.15;;;;;;;15.23;93.33;101004.97;4917893;29;20700;-47
2022/11/01 10:57:16;;;;;;;5.80;3.25;;;;;;;15.21;92.97;101014.09;4919867;29;20655;-47
2022/11/01 10:59:47;;;;;;;4.63;3.10;;;;;;;15.25;92.74;101012.97;4920737;29;20179;-46
2022/11/01 11:02:25;;;;;;;9.18;3.38;;;;;;;15.54;92.20;101019.44;4916884;28;20188;-49
2022/11/01 11:04:51;;;;;;;7.22;2.67;;;;;;;15.78;90.54;101017.22;4915230;29;20719;-46
2022/11/01 11:07:17;;;;;;;7.57;3.03;;;;;;;15.95;88.75;101010.88;4919123;28;20197;-48
2022/11/01 11:09:48;;;;;;;10.18;3.22;;;;;;;15.97;87.65;101000.84;4917242;29;20192;-48
2022/11/01 11:12:20;;;;;;;9.60;2.80;;;;;;;16.13;86.71;100997.25;4937849;28;20195;-48
2022/11/01 11:14:49;;;;;;;4.82;2.08;;;;;;;15.91;86.11;101006.59;4913738;29;20254;-47
2022/11/01 11:17:44;;;;;;;6.18;2.33;;;;;;;15.74;84.54;101004.88;4914984;29;20187;-48
2022/11/01 11:20:10;;;;;;;7.75;1.92;;;;;;;15.59;83.80;101008.38;4919432;29;20306;-46
2022/11/01 11:22:39;;;;;;;4.40;1.92;;;;;;;15.63;83.49;101012.66;4922900;29;20223;-47